createdAt,value
2022-12-16T00:00:20.558Z,82.38
2022-12-16T00:01:28.584Z,82.49
2022-12-16T00:02:32.433Z,82.35
2022-12-16T00:03:40.966Z,82.12
2022-12-16T00:04:44.862Z,82.11
2022-12-16T00:05:53.036Z,82.04
2022-12-16T00:06:58.662Z,81.98
2022-12-16T00:08:08.049Z,81.88
2022-12-16T00:09:12.932Z,81.84
2022-12-16T00:10:20.489Z,82.00
2022-12-16T00:11:24.800Z,81.70
2022-12-16T00:12:30.995Z,81.84
2022-12-16T00:13:40.531Z,81.83
2022-12-16T00:14:47.359Z,81.64
2022-12-16T00:15:50.685Z,81.75
2022-12-16T00:16:56.593Z,81.47
2022-12-16T00:17:59.958Z,81.31
2022-12-16T00:19:06.256Z,81.19
2022-12-16T00:20:12.555Z,81.36
2022-12-16T00:21:18.885Z,81.66
2022-12-16T00:22:22.851Z,81.69
2022-12-16T00:23:32.514Z,81.63
2022-12-16T00:24:36.516Z,81.72
2022-12-16T00:25:46.048Z,81.73
2022-12-16T00:26:52.605Z,81.52
2022-12-16T00:28:00.468Z,81.90
2022-12-16T00:29:07.280Z,81.69
2022-12-16T00:30:15.257Z,81.83
2022-12-16T00:31:22.115Z,81.65
2022-12-16T00:32:25.497Z,81.38
2022-12-16T00:33:32.573Z,81.40
2022-12-16T00:34:36.273Z,81.70
2022-12-16T00:35:45.886Z,81.64
2022-12-16T00:36:52.992Z,81.56
2022-12-16T00:37:56.335Z,81.42
2022-12-16T00:39:06.438Z,81.66
2022-12-16T00:40:11.976Z,81.63
2022-12-16T00:41:17.976Z,81.48
2022-12-16T00:42:22.200Z,81.20
2022-12-16T00:43:28.552Z,81.29
2022-12-16T00:44:32.058Z,81.37
2022-12-16T00:45:39.305Z,81.54
2022-12-16T00:46:42.842Z,81.64
2022-12-16T00:47:54.407Z,81.73
2022-12-16T00:48:58.616Z,81.29
2022-12-16T00:50:05.128Z,81.49
2022-12-16T00:51:08.535Z,81.74
2022-12-16T00:52:14.409Z,81.90
2022-12-16T00:53:18.993Z,82.10
2022-12-16T00:54:32.116Z,81.93
2022-12-16T00:55:35.450Z,81.73
2022-12-16T00:56:41.508Z,81.99
2022-12-16T00:57:45.758Z,81.90
2022-12-16T00:58:52.520Z,82.00
2022-12-16T00:59:58.224Z,81.85
2022-12-16T01:01:06.025Z,81.92
2022-12-16T01:02:11.332Z,82.14
2022-12-16T01:03:21.470Z,82.21
2022-12-16T01:04:29.678Z,82.10
2022-12-16T01:05:33.084Z,82.13
2022-12-16T01:06:39.117Z,82.13
2022-12-16T01:07:42.994Z,82.46
2022-12-16T01:08:49.485Z,82.78
2022-12-16T01:09:56.271Z,82.35
2022-12-16T01:11:02.278Z,82.45
2022-12-16T01:12:06.646Z,82.76
2022-12-16T01:13:12.922Z,82.80
2022-12-16T01:14:19.652Z,83.12
2022-12-16T01:15:24.290Z,83.44
2022-12-16T01:16:30.424Z,83.30
2022-12-16T01:17:35.303Z,83.56
2022-12-16T01:18:41.573Z,83.51
2022-12-16T01:19:47.569Z,83.66
2022-12-16T01:20:51.881Z,83.53
2022-12-16T01:21:57.825Z,83.68
2022-12-16T01:23:01.532Z,83.82
2022-12-16T01:24:13.315Z,83.41
2022-12-16T01:25:19.432Z,83.34
2022-12-16T01:26:26.972Z,83.26
2022-12-16T01:27:30.899Z,83.61
2022-12-16T01:28:36.852Z,83.60
2022-12-16T01:29:40.806Z,83.51
2022-12-16T01:30:46.767Z,83.58
2022-12-16T01:31:51.560Z,83.38
2022-12-16T01:32:58.241Z,83.26
2022-12-16T01:34:01.529Z,82.89
2022-12-16T01:35:29.489Z,83.00
2022-12-16T01:36:35.626Z,82.97
2022-12-16T01:37:40.089Z,83.06
2022-12-16T01:38:48.084Z,82.67
2022-12-16T01:39:52.580Z,82.63
2022-12-16T01:41:01.364Z,82.77
2022-12-16T01:42:12.368Z,82.60
2022-12-16T01:43:24.427Z,82.75
2022-12-16T01:44:28.290Z,82.81
2022-12-16T01:45:38.924Z,82.61
2022-12-16T01:46:47.645Z,82.72
2022-12-16T01:47:58.064Z,82.44
2022-12-16T01:49:14.401Z,82.72
2022-12-16T01:50:19.558Z,82.60
2022-12-16T01:51:33.215Z,82.56
2022-12-16T01:52:44.442Z,82.22
2022-12-16T01:53:58.976Z,81.84
2022-12-16T01:55:12.439Z,82.06
2022-12-16T01:56:27.718Z,82.00
2022-12-16T01:57:41.151Z,82.26
2022-12-16T01:58:49.748Z,81.93
2022-12-16T01:59:57.940Z,81.76
2022-12-16T02:01:06.403Z,81.80
2022-12-16T02:02:12.172Z,82.04
2022-12-16T02:03:19.869Z,82.04
2022-12-16T02:04:23.411Z,81.94
2022-12-16T02:05:32.041Z,82.29
2022-12-16T02:06:36.212Z,82.52
2022-12-16T02:07:42.105Z,82.18
2022-12-16T02:08:47.981Z,82.17
2022-12-16T02:09:52.167Z,81.87
2022-12-16T02:11:26.850Z,82.20
2022-12-16T02:12:52.510Z,81.92
2022-12-16T02:14:39.196Z,82.29
2022-12-16T02:15:57.843Z,82.16
2022-12-16T02:17:17.485Z,82.01
2022-12-16T02:18:39.702Z,82.20
2022-12-16T02:20:19.883Z,81.92
2022-12-16T02:21:51.840Z,82.11
2022-12-16T02:23:37.016Z,81.82
2022-12-16T02:25:35.637Z,81.85
2022-12-16T02:27:30.208Z,81.50
2022-12-16T02:29:12.886Z,81.91
2022-12-16T02:30:56.508Z,81.78
2022-12-16T02:32:20.139Z,81.75
2022-12-16T02:34:13.617Z,81.93
2022-12-16T02:35:36.065Z,81.77
2022-12-16T02:37:05.871Z,82.09
2022-12-16T02:38:29.019Z,82.30
2022-12-16T02:39:40.134Z,82.02
2022-12-16T02:40:58.791Z,82.05
2022-12-16T02:42:17.450Z,82.26
2022-12-16T02:43:53.633Z,81.96
2022-12-16T02:45:09.196Z,82.30
2022-12-16T02:46:20.164Z,82.46
2022-12-16T02:47:27.206Z,82.46
2022-12-16T02:48:30.805Z,82.15
2022-12-16T02:49:53.177Z,81.88
2022-12-16T02:50:56.984Z,82.05
2022-12-16T02:52:05.492Z,82.29
2022-12-16T02:53:13.871Z,82.53
2022-12-16T02:54:19.449Z,82.43
2022-12-16T02:55:41.454Z,82.22
2022-12-16T02:57:06.085Z,82.04
2022-12-16T02:58:28.244Z,82.07
2022-12-16T02:59:49.757Z,82.12
2022-12-16T03:01:11.961Z,82.19
2022-12-16T03:02:31.383Z,82.39
2022-12-16T03:03:49.780Z,82.34
2022-12-16T03:05:08.938Z,82.57
2022-12-16T03:06:22.266Z,82.75
2022-12-16T03:07:32.515Z,83.15
2022-12-16T03:08:47.212Z,83.33
2022-12-16T03:09:55.311Z,83.28
2022-12-16T03:11:08.389Z,83.21
2022-12-16T03:12:18.569Z,83.19
2022-12-16T03:13:28.064Z,83.03
2022-12-16T03:14:39.696Z,82.72
2022-12-16T03:15:51.590Z,82.81
2022-12-16T03:16:56.117Z,82.88
2022-12-16T03:18:10.873Z,82.79
2022-12-16T03:19:14.871Z,82.62
2022-12-16T03:20:30.455Z,82.85
2022-12-16T03:21:48.120Z,82.73
2022-12-16T03:22:55.827Z,82.72
2022-12-16T03:24:08.555Z,82.78
2022-12-16T03:25:12.744Z,82.84
2022-12-16T03:26:27.999Z,82.86
2022-12-16T03:27:46.752Z,82.87
2022-12-16T03:29:02.256Z,82.74
2022-12-16T03:30:13.556Z,82.83
2022-12-16T03:31:41.918Z,82.53
2022-12-16T03:32:57.182Z,82.60
2022-12-16T03:34:17.936Z,82.75
2022-12-16T03:35:29.267Z,82.62
2022-12-16T03:36:42.856Z,82.81
2022-12-16T03:37:53.371Z,82.63
2022-12-16T03:39:02.820Z,82.77
2022-12-16T03:40:14.887Z,82.69
2022-12-16T03:41:24.136Z,83.17
2022-12-16T03:42:31.590Z,83.23
2022-12-16T03:43:35.560Z,83.24
2022-12-16T03:44:42.776Z,83.04
2022-12-16T03:45:52.091Z,82.83
2022-12-16T03:46:58.226Z,82.81
2022-12-16T03:48:02.426Z,82.94
2022-12-16T03:49:11.023Z,82.93
2022-12-16T03:50:14.760Z,83.24
2022-12-16T03:51:21.739Z,83.14
2022-12-16T03:52:25.105Z,83.09
2022-12-16T03:53:32.350Z,83.25
2022-12-16T03:54:38.600Z,83.19
2022-12-16T03:55:41.918Z,82.99
2022-12-16T03:56:47.883Z,83.20
2022-12-16T03:57:51.293Z,83.03
2022-12-16T03:58:58.919Z,82.85
2022-12-16T04:00:02.296Z,82.70
2022-12-16T04:01:18.642Z,82.73
2022-12-16T04:02:22.249Z,82.69
2022-12-16T04:03:28.339Z,82.60
2022-12-16T04:04:35.231Z,82.88
2022-12-16T04:05:41.703Z,82.36
2022-12-16T04:06:45.095Z,82.54
2022-12-16T04:07:51.080Z,82.79
2022-12-16T04:08:54.575Z,82.87
2022-12-16T04:10:01.376Z,82.32
2022-12-16T04:11:19.735Z,82.32
2022-12-16T04:12:38.287Z,82.41
2022-12-16T04:13:56.668Z,83.01
2022-12-16T04:15:15.903Z,82.89
2022-12-16T04:16:34.183Z,82.71
2022-12-16T04:17:52.804Z,82.93
2022-12-16T04:19:11.356Z,82.88
2022-12-16T04:20:40.114Z,82.64
2022-12-16T04:21:58.532Z,82.33
2022-12-16T04:23:17.788Z,82.67
2022-12-16T04:24:32.036Z,82.66
2022-12-16T04:25:41.504Z,82.43
2022-12-16T04:26:59.768Z,82.68
2022-12-16T04:28:06.548Z,82.52
2022-12-16T04:29:09.854Z,82.60
2022-12-16T04:30:23.295Z,82.01
2022-12-16T04:31:27.637Z,81.85
2022-12-16T04:32:56.204Z,81.69
2022-12-16T04:34:14.595Z,81.75
2022-12-16T04:35:36.779Z,82.21
2022-12-16T04:37:04.645Z,81.78
2022-12-16T04:38:23.094Z,81.91
2022-12-16T04:39:50.185Z,81.58
2022-12-16T04:41:08.709Z,81.78
2022-12-16T04:42:27.664Z,81.73
2022-12-16T04:43:46.074Z,81.43
2022-12-16T04:45:04.596Z,81.64
2022-12-16T04:46:23.069Z,82.03
2022-12-16T04:47:42.297Z,81.81
2022-12-16T04:49:00.698Z,81.74
2022-12-16T04:50:19.347Z,81.68
2022-12-16T04:51:40.244Z,82.07
2022-12-16T04:52:59.341Z,81.86
2022-12-16T04:54:17.988Z,82.33
2022-12-16T04:55:36.481Z,82.12
2022-12-16T04:56:54.770Z,82.08
2022-12-16T04:58:17.385Z,82.19
2022-12-16T04:59:35.732Z,82.24
2022-12-16T05:00:55.751Z,82.70
2022-12-16T05:02:14.529Z,82.62
2022-12-16T05:03:33.859Z,82.71
2022-12-16T05:04:52.456Z,82.52
2022-12-16T05:06:10.730Z,82.33
2022-12-16T05:07:37.772Z,82.21
2022-12-16T05:08:57.407Z,82.73
2022-12-16T05:10:15.740Z,82.11
2022-12-16T05:11:34.044Z,82.28
2022-12-16T05:12:52.460Z,82.21
2022-12-16T05:14:11.590Z,82.29
2022-12-16T05:15:30.158Z,82.06
2022-12-16T05:16:48.579Z,82.02
2022-12-16T05:18:06.886Z,82.09
2022-12-16T05:19:31.473Z,81.76
2022-12-16T05:20:50.348Z,81.85
2022-12-16T05:22:09.247Z,81.86
2022-12-16T05:23:30.632Z,81.99
2022-12-16T05:24:53.060Z,82.04
2022-12-16T05:26:11.707Z,81.86
2022-12-16T05:27:30.061Z,81.81
2022-12-16T05:28:48.492Z,81.99
2022-12-16T05:30:07.703Z,82.43
2022-12-16T05:31:26.169Z,82.01
2022-12-16T05:32:44.631Z,82.20
2022-12-16T05:34:03.104Z,82.62
2022-12-16T05:35:23.038Z,82.59
2022-12-16T05:36:41.324Z,82.62
2022-12-16T05:37:59.614Z,82.61
2022-12-16T05:39:23.220Z,82.53
2022-12-16T05:40:42.468Z,82.80
2022-12-16T05:42:00.784Z,83.09
2022-12-16T05:43:19.190Z,83.05
2022-12-16T05:44:37.544Z,83.00
2022-12-16T05:45:57.845Z,82.73
2022-12-16T05:47:16.274Z,82.58
2022-12-16T05:48:34.705Z,82.69
2022-12-16T05:49:53.344Z,82.80
2022-12-16T05:51:13.054Z,83.05
2022-12-16T05:52:32.556Z,82.98
2022-12-16T05:53:51.061Z,82.84
2022-12-16T05:55:12.272Z,83.13
2022-12-16T05:56:31.370Z,83.00
2022-12-16T05:57:49.864Z,82.88
2022-12-16T05:59:08.264Z,83.08
2022-12-16T06:00:28.913Z,83.17
2022-12-16T06:01:48.136Z,82.90
2022-12-16T06:03:06.684Z,82.86
2022-12-16T06:04:30.940Z,82.94
2022-12-16T06:05:49.349Z,82.59
2022-12-16T06:07:08.625Z,82.68
2022-12-16T06:08:27.005Z,82.51
2022-12-16T06:09:56.307Z,82.47
2022-12-16T06:11:17.678Z,82.30
2022-12-16T06:12:36.853Z,82.25
2022-12-16T06:13:55.204Z,82.51
2022-12-16T06:15:13.688Z,82.63
2022-12-16T06:16:32.062Z,82.63
2022-12-16T06:17:51.442Z,82.52
2022-12-16T06:19:09.838Z,82.73
2022-12-16T06:20:28.388Z,82.69
2022-12-16T06:21:46.822Z,82.47
2022-12-16T06:23:07.303Z,82.54
2022-12-16T06:24:25.956Z,82.31
2022-12-16T06:25:44.924Z,82.21
2022-12-16T06:27:05.909Z,82.31
2022-12-16T06:28:25.080Z,82.47
2022-12-16T06:29:43.419Z,82.08
2022-12-16T06:31:01.824Z,82.24
2022-12-16T06:32:20.313Z,82.50
2022-12-16T06:33:39.877Z,82.42
2022-12-16T06:34:58.261Z,82.58
2022-12-16T06:36:16.502Z,82.52
2022-12-16T06:37:35.810Z,82.47
2022-12-16T06:38:54.902Z,82.53
2022-12-16T06:40:13.379Z,82.75
2022-12-16T06:41:31.886Z,82.67
2022-12-16T06:42:55.989Z,82.66
2022-12-16T06:44:15.472Z,82.69
2022-12-16T06:45:48.867Z,82.65
2022-12-16T06:47:07.314Z,82.77
2022-12-16T06:48:27.076Z,83.00
2022-12-16T06:49:46.352Z,82.99
2022-12-16T06:51:19.403Z,83.18
2022-12-16T06:52:37.758Z,82.80
2022-12-16T06:53:56.506Z,82.67
2022-12-16T06:55:15.953Z,82.57
2022-12-16T06:56:35.230Z,82.55
2022-12-16T06:57:56.503Z,82.13
2022-12-16T06:59:17.542Z,82.22
2022-12-16T07:00:39.704Z,82.48
2022-12-16T07:01:59.753Z,82.48
2022-12-16T07:03:18.429Z,82.56
2022-12-16T07:04:37.111Z,82.76
2022-12-16T07:05:56.923Z,82.72
2022-12-16T07:07:15.511Z,82.96
2022-12-16T07:08:34.047Z,82.57
2022-12-16T07:09:53.470Z,82.49
2022-12-16T07:11:17.285Z,82.54
2022-12-16T07:12:36.106Z,82.50
2022-12-16T07:14:11.846Z,82.62
2022-12-16T07:15:30.518Z,82.29
2022-12-16T07:16:50.234Z,82.35
2022-12-16T07:18:08.614Z,82.37
2022-12-16T07:19:26.898Z,82.58
2022-12-16T07:20:45.948Z,82.32
2022-12-16T07:22:05.163Z,82.46
2022-12-16T07:23:23.555Z,82.48
2022-12-16T07:24:41.876Z,82.38
2022-12-16T07:26:00.342Z,82.40
2022-12-16T07:27:20.351Z,82.61
2022-12-16T07:28:38.781Z,82.37
2022-12-16T07:29:59.907Z,82.33
2022-12-16T07:31:18.415Z,82.46
2022-12-16T07:32:37.603Z,82.23
2022-12-16T07:33:56.134Z,82.09
2022-12-16T07:35:14.415Z,82.34
2022-12-16T07:36:33.448Z,82.61
2022-12-16T07:37:54.980Z,82.75
2022-12-16T07:39:13.588Z,82.55
2022-12-16T07:40:32.130Z,82.25
2022-12-16T07:41:50.460Z,82.19
2022-12-16T07:43:12.075Z,82.29
2022-12-16T07:44:30.524Z,82.28
2022-12-16T07:45:51.529Z,81.88
2022-12-16T07:47:11.718Z,82.11
2022-12-16T07:48:39.957Z,81.86
2022-12-16T07:49:58.276Z,81.94
2022-12-16T07:51:18.220Z,82.25
2022-12-16T07:52:36.735Z,81.85
2022-12-16T07:54:07.796Z,81.79
2022-12-16T07:55:26.207Z,81.84
2022-12-16T07:56:44.511Z,81.59
2022-12-16T07:58:06.135Z,81.59
2022-12-16T07:59:25.240Z,81.32
2022-12-16T08:00:43.598Z,81.73
2022-12-16T08:02:04.726Z,81.57
2022-12-16T08:03:23.263Z,81.63
2022-12-16T08:04:42.648Z,81.43
2022-12-16T08:06:00.982Z,81.19
2022-12-16T08:07:19.813Z,81.39
2022-12-16T08:08:38.314Z,81.36
2022-12-16T08:09:57.446Z,80.89
2022-12-16T08:11:15.949Z,80.77
2022-12-16T08:12:34.360Z,80.86
2022-12-16T08:13:53.465Z,80.63
2022-12-16T08:15:13.051Z,81.06
2022-12-16T08:16:46.394Z,80.81
2022-12-16T08:18:09.009Z,80.46
2022-12-16T08:19:28.222Z,80.35
2022-12-16T08:20:47.730Z,80.58
2022-12-16T08:22:06.157Z,80.45
2022-12-16T08:23:24.361Z,80.19
2022-12-16T08:24:46.832Z,79.88
2022-12-16T08:26:10.710Z,79.58
2022-12-16T08:27:29.210Z,79.53
2022-12-16T08:28:47.587Z,79.69
2022-12-16T08:30:05.957Z,79.61
2022-12-16T08:31:25.208Z,79.01
2022-12-16T08:32:45.976Z,79.11
2022-12-16T08:34:06.953Z,78.94
2022-12-16T08:35:26.387Z,78.51
2022-12-16T08:36:45.575Z,78.65
2022-12-16T08:38:09.063Z,78.34
2022-12-16T08:39:31.990Z,78.08
2022-12-16T08:40:50.418Z,78.10
2022-12-16T08:42:11.511Z,78.17
2022-12-16T08:43:30.499Z,78.66
2022-12-16T08:44:49.209Z,78.25
2022-12-16T08:46:10.224Z,78.64
2022-12-16T08:47:32.492Z,78.60
2022-12-16T08:48:50.957Z,78.92
2022-12-16T08:50:11.957Z,79.12
2022-12-16T08:51:30.577Z,78.91
2022-12-16T08:52:49.916Z,78.59
2022-12-16T08:54:08.826Z,78.55
2022-12-16T08:55:29.739Z,78.92
2022-12-16T08:56:48.689Z,79.41
2022-12-16T08:58:11.496Z,79.17
2022-12-16T08:59:30.487Z,79.34
2022-12-16T09:00:48.995Z,78.90
2022-12-16T09:02:07.868Z,79.31
2022-12-16T09:03:28.347Z,78.57
2022-12-16T09:04:49.103Z,79.21
2022-12-16T09:06:14.478Z,79.01
2022-12-16T09:07:33.119Z,77.97
2022-12-16T09:08:53.837Z,77.55
2022-12-16T09:10:12.427Z,77.84
2022-12-16T09:11:31.226Z,77.42
2022-12-16T09:12:50.043Z,77.26
2022-12-16T09:14:10.123Z,77.85
2022-12-16T09:15:28.807Z,77.25
2022-12-16T09:16:47.233Z,77.38
2022-12-16T09:18:10.137Z,77.27
2022-12-16T09:19:29.547Z,77.54
2022-12-16T09:20:47.947Z,77.31
2022-12-16T09:22:08.978Z,77.83
2022-12-16T09:23:27.313Z,77.58
2022-12-16T09:24:46.723Z,77.34
2022-12-16T09:26:05.465Z,77.55
2022-12-16T09:27:23.977Z,77.85
2022-12-16T09:28:43.256Z,77.97
2022-12-16T09:30:05.415Z,78.24
2022-12-16T09:31:23.910Z,78.80
2022-12-16T09:32:42.555Z,78.43
2022-12-16T09:34:00.883Z,78.41
2022-12-16T09:35:21.090Z,78.28
2022-12-16T09:36:39.407Z,78.63
2022-12-16T09:38:05.743Z,79.28
2022-12-16T09:39:24.121Z,78.83
2022-12-16T09:40:43.404Z,78.99
2022-12-16T09:42:30.894Z,79.60
2022-12-16T09:44:12.399Z,79.72
2022-12-16T09:45:47.832Z,79.60
2022-12-16T09:47:25.948Z,79.47
2022-12-16T09:49:01.532Z,79.65
2022-12-16T09:50:33.559Z,79.65
2022-12-16T09:51:56.163Z,79.05
2022-12-16T09:53:27.100Z,79.44
2022-12-16T09:55:03.534Z,79.11
2022-12-16T09:56:32.734Z,79.26
2022-12-16T09:57:53.708Z,79.21
2022-12-16T09:59:27.074Z,78.83
2022-12-16T10:00:46.845Z,78.92
2022-12-16T10:02:08.438Z,79.28
2022-12-16T10:03:39.891Z,79.12
2022-12-16T10:05:16.004Z,79.07
2022-12-16T10:06:54.215Z,79.04
2022-12-16T10:08:37.267Z,79.65
2022-12-16T10:10:14.817Z,79.13
2022-12-16T10:11:52.616Z,79.53
2022-12-16T10:13:24.827Z,78.88
2022-12-16T10:14:54.724Z,79.03
2022-12-16T10:16:34.512Z,79.45
2022-12-16T10:18:01.657Z,79.05
2022-12-16T10:19:48.920Z,79.25
2022-12-16T10:21:11.336Z,79.04
2022-12-16T10:22:41.379Z,78.74
2022-12-16T10:24:16.664Z,77.94
2022-12-16T10:25:42.263Z,77.96
2022-12-16T10:27:13.808Z,78.30
2022-12-16T10:28:38.551Z,77.85
2022-12-16T10:30:01.810Z,77.60
2022-12-16T10:31:31.979Z,77.97
2022-12-16T10:32:59.112Z,78.74
2022-12-16T10:34:25.737Z,78.98
2022-12-16T10:35:52.735Z,78.75
2022-12-16T10:37:20.450Z,78.75
2022-12-16T10:38:52.402Z,78.52
2022-12-16T10:40:18.164Z,78.21
2022-12-16T10:41:44.781Z,78.06
2022-12-16T10:43:31.185Z,78.33
2022-12-16T10:45:03.404Z,78.36
2022-12-16T10:46:41.000Z,78.00
2022-12-16T10:48:00.579Z,77.69
2022-12-16T10:49:19.159Z,77.77
2022-12-16T10:50:37.884Z,78.09
2022-12-16T10:51:56.211Z,78.40
2022-12-16T10:53:20.075Z,77.52
2022-12-16T10:54:54.256Z,77.20
2022-12-16T10:56:40.632Z,77.02
2022-12-16T10:58:18.163Z,77.54
2022-12-16T10:59:37.801Z,77.26
2022-12-16T11:01:01.745Z,77.96
2022-12-16T11:02:34.344Z,77.65
2022-12-16T11:03:55.211Z,77.50
2022-12-16T11:05:14.455Z,78.17
2022-12-16T11:06:40.421Z,78.45
2022-12-16T11:08:09.598Z,78.32
2022-12-16T11:09:43.006Z,78.30
2022-12-16T11:11:02.260Z,78.21
2022-12-16T11:12:38.574Z,77.67
2022-12-16T11:13:56.976Z,77.65
2022-12-16T11:15:30.699Z,78.50
2022-12-16T11:16:50.033Z,77.52
2022-12-16T11:18:20.231Z,77.72
2022-12-16T11:19:42.039Z,77.71
2022-12-16T11:21:04.150Z,77.39
2022-12-16T11:22:30.728Z,77.08
2022-12-16T11:23:49.155Z,77.05
2022-12-16T11:25:28.671Z,76.81
2022-12-16T11:26:47.040Z,77.25
2022-12-16T11:28:19.560Z,76.79
2022-12-16T11:29:38.167Z,77.23
2022-12-16T11:30:56.570Z,77.32
2022-12-16T11:32:49.103Z,77.03
2022-12-16T11:34:11.354Z,75.88
2022-12-16T11:35:39.617Z,76.08
2022-12-16T11:37:03.490Z,75.46
2022-12-16T11:38:37.006Z,75.70
2022-12-16T11:40:08.346Z,74.67
2022-12-16T11:41:45.963Z,75.28
2022-12-16T11:43:11.657Z,74.80
2022-12-16T11:44:44.509Z,75.56
2022-12-16T11:46:07.959Z,74.93
2022-12-16T11:47:39.712Z,74.27
2022-12-16T11:49:05.211Z,74.58
2022-12-16T11:50:33.018Z,74.44
2022-12-16T11:52:28.116Z,74.34
2022-12-16T11:53:49.950Z,74.30
2022-12-16T11:55:56.011Z,75.00
2022-12-16T11:57:09.432Z,75.66
2022-12-16T11:58:43.386Z,75.70
2022-12-16T12:00:14.654Z,75.75
2022-12-16T12:01:45.470Z,75.11
2022-12-16T12:03:16.931Z,75.59
2022-12-16T12:04:35.532Z,75.46
2022-12-16T12:06:20.683Z,75.84
2022-12-16T12:07:50.516Z,75.69
2022-12-16T12:09:22.610Z,76.18
2022-12-16T12:11:11.591Z,76.07
2022-12-16T12:12:48.060Z,76.19
2022-12-16T12:14:27.155Z,75.94
2022-12-16T12:16:01.164Z,76.89
2022-12-16T12:17:47.044Z,76.30
2022-12-16T12:19:21.569Z,76.48
2022-12-16T12:21:02.560Z,77.03
2022-12-16T12:22:36.613Z,76.12
2022-12-16T12:24:13.768Z,76.08
2022-12-16T12:25:48.008Z,76.38
2022-12-16T12:27:19.547Z,75.98
2022-12-16T12:28:58.988Z,76.09
2022-12-16T12:30:25.639Z,76.33
2022-12-16T12:32:04.407Z,76.30
2022-12-16T12:33:46.885Z,76.13
2022-12-16T12:35:28.331Z,76.42
2022-12-16T12:37:04.472Z,76.81
2022-12-16T12:38:35.206Z,77.37
2022-12-16T12:40:12.614Z,77.73
2022-12-16T12:41:43.252Z,77.67
2022-12-16T12:43:09.031Z,78.23
2022-12-16T12:44:54.600Z,78.64
2022-12-16T12:46:30.216Z,78.36
2022-12-16T12:48:02.840Z,77.80
2022-12-16T12:49:37.562Z,78.28
2022-12-16T12:51:21.408Z,78.31
2022-12-16T12:53:18.657Z,78.57
2022-12-16T12:54:57.647Z,77.88
2022-12-16T12:56:31.986Z,77.65
2022-12-16T12:57:56.936Z,77.86
2022-12-16T12:59:27.405Z,77.48
2022-12-16T13:00:57.275Z,77.94
2022-12-16T13:02:20.678Z,77.91
2022-12-16T13:03:54.385Z,78.00
2022-12-16T13:05:19.731Z,78.28
2022-12-16T13:06:50.126Z,78.12
2022-12-16T13:08:09.572Z,78.12
2022-12-16T13:09:45.367Z,77.91
2022-12-16T13:11:03.652Z,77.24
2022-12-16T13:12:50.321Z,77.39
2022-12-16T13:14:08.647Z,78.18
2022-12-16T13:15:48.141Z,77.64
2022-12-16T13:17:17.996Z,77.42
2022-12-16T13:18:49.345Z,77.33
2022-12-16T13:20:14.437Z,77.29
2022-12-16T13:22:02.205Z,77.27
2022-12-16T13:23:46.939Z,76.98
2022-12-16T13:25:08.130Z,76.59
2022-12-16T13:26:26.631Z,76.39
2022-12-16T13:28:05.003Z,76.46
2022-12-16T13:29:38.350Z,76.52
2022-12-16T13:31:25.255Z,76.15
2022-12-16T13:32:44.664Z,76.87
2022-12-16T13:34:12.540Z,76.76
2022-12-16T13:35:34.438Z,76.07
2022-12-16T13:36:55.924Z,76.36
2022-12-16T13:38:18.655Z,76.41
2022-12-16T13:39:42.744Z,76.41
2022-12-16T13:41:11.912Z,76.49
2022-12-16T13:43:05.159Z,76.53
2022-12-16T13:44:24.897Z,76.46
2022-12-16T13:45:50.988Z,76.37
2022-12-16T13:47:12.368Z,76.99
2022-12-16T13:48:58.702Z,76.48
2022-12-16T13:50:53.247Z,76.35
2022-12-16T13:52:27.707Z,76.01
2022-12-16T13:53:53.670Z,76.15
2022-12-16T13:55:30.530Z,76.50
2022-12-16T13:56:56.977Z,76.91
2022-12-16T13:58:29.121Z,77.06
2022-12-16T13:59:49.030Z,77.35
2022-12-16T14:01:21.211Z,77.02
2022-12-16T14:02:54.077Z,76.92
2022-12-16T14:04:16.223Z,77.07
2022-12-16T14:05:44.696Z,77.48
2022-12-16T14:07:05.721Z,77.50
2022-12-16T14:08:43.103Z,76.84
2022-12-16T14:10:05.397Z,77.17
2022-12-16T14:11:40.189Z,77.51
2022-12-16T14:13:21.877Z,77.49
2022-12-16T14:14:51.273Z,77.93
2022-12-16T14:16:26.431Z,77.46
2022-12-16T14:18:01.094Z,78.05
2022-12-16T14:19:44.133Z,77.56
2022-12-16T14:21:13.611Z,77.68
2022-12-16T14:22:58.345Z,78.19
2022-12-16T14:24:35.896Z,78.34
2022-12-16T14:26:00.644Z,78.22
2022-12-16T14:27:32.799Z,78.35
2022-12-16T14:28:54.976Z,77.93
2022-12-16T14:30:14.931Z,78.08
2022-12-16T14:31:39.630Z,77.90
2022-12-16T14:32:58.165Z,78.18
2022-12-16T14:34:19.404Z,78.41
2022-12-16T14:35:42.806Z,78.67
2022-12-16T14:37:04.470Z,78.83
2022-12-16T14:38:42.289Z,78.58
2022-12-16T14:40:05.825Z,78.43
2022-12-16T14:41:30.290Z,78.60
2022-12-16T14:42:48.867Z,79.04
2022-12-16T14:44:09.981Z,78.37
2022-12-16T14:45:44.834Z,78.19
2022-12-16T14:47:08.358Z,78.26
2022-12-16T14:48:37.481Z,78.49
2022-12-16T14:50:08.049Z,78.38
2022-12-16T14:51:45.734Z,77.92
2022-12-16T14:53:29.565Z,78.03
2022-12-16T14:54:54.785Z,78.35
2022-12-16T14:56:31.103Z,77.78
2022-12-16T14:57:50.112Z,77.53
2022-12-16T14:59:29.792Z,78.17
2022-12-16T15:00:54.751Z,78.11
2022-12-16T15:02:35.861Z,78.01
2022-12-16T15:03:59.569Z,78.37
2022-12-16T15:05:20.800Z,78.60
2022-12-16T15:06:45.383Z,78.23
2022-12-16T15:08:07.050Z,77.94
2022-12-16T15:09:39.430Z,78.40
2022-12-16T15:10:59.758Z,78.42
2022-12-16T15:12:19.426Z,78.49
2022-12-16T15:13:38.713Z,78.70
2022-12-16T15:14:58.584Z,78.60
2022-12-16T15:16:21.841Z,78.26
2022-12-16T15:17:47.015Z,78.07
2022-12-16T15:19:16.312Z,78.08
2022-12-16T15:20:41.801Z,78.14
2022-12-16T15:22:02.565Z,78.52
2022-12-16T15:23:35.248Z,78.65
2022-12-16T15:25:03.859Z,79.09
2022-12-16T15:26:24.303Z,79.45
2022-12-16T15:27:51.809Z,79.57
2022-12-16T15:29:10.601Z,79.43
2022-12-16T15:30:52.303Z,79.66
2022-12-16T15:32:10.637Z,79.69
2022-12-16T15:33:34.961Z,79.59
2022-12-16T15:35:03.791Z,79.53
2022-12-16T15:36:40.627Z,79.49
2022-12-16T15:38:03.897Z,79.44
2022-12-16T15:39:52.233Z,79.48
2022-12-16T15:41:10.729Z,79.59
2022-12-16T15:42:39.804Z,79.39
2022-12-16T15:44:03.095Z,79.22
2022-12-16T15:45:35.617Z,79.43
2022-12-16T15:46:54.343Z,78.89
2022-12-16T15:48:14.143Z,78.24
2022-12-16T15:49:39.972Z,78.55
2022-12-16T15:51:09.407Z,78.88
2022-12-16T15:52:53.209Z,79.03
2022-12-16T15:54:19.430Z,78.75
2022-12-16T15:55:47.904Z,78.57
2022-12-16T15:57:07.050Z,78.52
2022-12-16T15:58:40.067Z,78.72
2022-12-16T16:00:13.508Z,79.28
2022-12-16T16:01:36.629Z,79.16
2022-12-16T16:03:04.324Z,78.25
2022-12-16T16:04:37.412Z,77.56
2022-12-16T16:05:56.171Z,77.66
2022-12-16T16:07:14.858Z,78.07
2022-12-16T16:08:34.341Z,78.22
2022-12-16T16:09:55.064Z,78.28
2022-12-16T16:11:16.423Z,78.00
2022-12-16T16:12:38.178Z,77.98
2022-12-16T16:14:04.241Z,77.58
2022-12-16T16:15:28.801Z,77.78
2022-12-16T16:16:48.099Z,77.89
2022-12-16T16:18:12.186Z,78.05
2022-12-16T16:19:39.827Z,77.94
2022-12-16T16:21:05.351Z,78.36
2022-12-16T16:22:28.938Z,78.63
2022-12-16T16:23:50.928Z,79.09
2022-12-16T16:25:10.480Z,78.89
2022-12-16T16:26:37.244Z,79.10
2022-12-16T16:27:55.561Z,79.18
2022-12-16T16:29:14.084Z,79.16
2022-12-16T16:30:33.371Z,79.16
2022-12-16T16:31:51.740Z,79.03
2022-12-16T16:33:12.806Z,78.86
2022-12-16T16:34:32.027Z,78.24
2022-12-16T16:35:51.289Z,78.02
2022-12-16T16:37:14.612Z,78.29
2022-12-16T16:38:33.038Z,78.42
2022-12-16T16:39:51.338Z,78.56
2022-12-16T16:41:11.039Z,78.34
2022-12-16T16:42:31.993Z,78.21
2022-12-16T16:43:50.404Z,78.23
2022-12-16T16:45:10.935Z,78.12
2022-12-16T16:46:49.963Z,78.18
2022-12-16T16:48:19.761Z,77.75
2022-12-16T16:49:44.530Z,77.53
2022-12-16T16:51:03.384Z,78.31
2022-12-16T16:52:27.809Z,78.71
2022-12-16T16:53:46.195Z,78.86
2022-12-16T16:55:04.527Z,79.19
2022-12-16T16:56:27.622Z,79.19
2022-12-16T16:57:53.581Z,78.32
2022-12-16T16:59:11.980Z,78.08
2022-12-16T17:00:32.007Z,78.35
2022-12-16T17:01:51.224Z,78.56
2022-12-16T17:03:10.914Z,78.05
2022-12-16T17:04:29.453Z,78.52
2022-12-16T17:05:48.010Z,78.49
2022-12-16T17:07:06.761Z,78.99
2022-12-16T17:08:26.033Z,78.88
2022-12-16T17:09:44.520Z,79.09
2022-12-16T17:11:03.493Z,78.97
2022-12-16T17:12:35.551Z,78.63
2022-12-16T17:13:57.380Z,78.72
2022-12-16T17:15:15.836Z,78.76
2022-12-16T17:16:34.222Z,78.62
2022-12-16T17:17:52.794Z,78.63
2022-12-16T17:19:11.986Z,78.83
2022-12-16T17:20:32.851Z,78.78
2022-12-16T17:21:51.327Z,78.87